Time;durP1;ratioP1;P1;durP2;ratioP2;P2;SDS_P1;SDS_P2;PMS_P1;PMS_P2;Temp;Humidity;BMP_temperature;BMP_pressure;BME280_temperature;BME280_humidity;BME280_pressure;Samples;Min_cycle;Max_cycle;Signal;HPM_P1;HPM_P2
2022/09/21 00:00:40;;;;;;;;;;;;;;;12.70;100.00;102700.28;5066641;28;19932;-31
2022/09/21 00:03:09;;;;;;;;;;;;;;;12.63;100.00;102706.09;5052688;28;19931;-31
2022/09/21 00:05:37;;;;;;;;;;;;;;;12.56;100.00;102699.91;5059630;28;19930;-33
2022/09/21 00:08:06;;;;;;;;;;;;;;;12.48;100.00;102705.97;5054923;28;19950;-32
2022/09/21 00:10:34;;;;;;;;;;;;;;;12.41;100.00;102699.75;5057123;28;19931;-31
2022/09/21 00:13:02;;;;;;;;;;;;;;;12.34;100.00;102701.94;5057048;28;20382;-33
2022/09/21 00:15:30;;;;;;;;;;;;;;;12.25;100.00;102706.31;5055007;28;20019;-32
2022/09/21 00:17:58;;;;;;;;;;;;;;;12.18;100.00;102695.38;5058344;28;19925;-32
2022/09/21 00:20:28;;;;;;;;;;;;;;;12.11;100.00;102705.06;5054049;28;20221;-31
2022/09/21 00:22:55;;;;;;;;;;;;;;;12.04;100.00;102710.88;5065538;28;19932;-34
2022/09/21 00:25:23;;;;;;;;;;;;;;;11.98;100.00;102711.94;5069594;28;19925;-32
2022/09/21 00:27:51;;;;;;;;;;;;;;;11.90;100.00;102704.84;5060037;28;20376;-32
2022/09/21 00:30:19;;;;;;;;;;;;;;;11.83;100.00;102704.22;5068495;28;19925;-35
2022/09/21 00:32:46;;;;;;;;;;;;;;;11.75;100.00;102713.06;5062248;28;20011;-31
2022/09/21 00:35:14;;;;;;;;;;;;;;;11.68;100.00;102701.22;5051701;28;20055;-32
2022/09/21 00:37:43;;;;;;;;;;;;;;;11.63;100.00;102703.94;5061626;28;20328;-32
2022/09/21 00:40:11;;;;;;;;;;;;;;;11.57;100.00;102708.66;5050940;28;19929;-31
2022/09/21 00:42:39;;;;;;;;;;;;;;;11.51;100.00;102704.09;5063201;28;20279;-32
2022/09/21 00:45:19;;;;;;;;;;;;;;;11.47;100.00;102707.66;5050247;28;19929;-31
2022/09/21 00:47:48;;;;;;;;;;;;;;;11.40;100.00;102705.06;5063493;28;20352;-31
2022/09/21 00:50:18;;;;;;;;;;;;;;;11.35;100.00;102708.66;5067480;28;19932;-30
2022/09/21 00:52:50;;;;;;;;;;;;;;;11.30;100.00;102711.38;5057264;28;19979;-37
2022/09/21 00:55:21;;;;;;;;;;;;;;;11.24;100.00;102706.81;5074726;28;19931;-31
2022/09/21 00:57:51;;;;;;;;;;;;;;;11.19;100.00;102714.28;5061131;28;20712;-32
2022/09/21 01:00:19;;;;;;;;;;;;;;;11.14;100.00;102711.41;5074605;28;20322;-33
2022/09/21 01:02:47;;;;;;;;;;;;;;;11.09;100.00;102722.50;5069855;28;20404;-32
2022/09/21 01:05:15;;;;;;;;;;;;;;;11.03;100.00;102710.41;5054753;28;19925;-31
2022/09/21 01:07:45;;;;;;;;;;;;;;;10.98;100.00;102713.16;5062947;28;20389;-32
2022/09/21 01:10:15;;;;;;;;;;;;;;;10.93;100.00;102704.69;5057457;28;20305;-31
2022/09/21 01:12:50;;;;;;;;;;;;;;;10.90;100.00;102713.56;5061156;28;19928;-35
2022/09/21 01:15:22;;;;;;;;;;;;;;;10.85;100.00;102710.69;5058221;28;19924;-35
2022/09/21 01:17:52;;;;;;;;;;;;;;;10.80;100.00;102705.03;5061123;28;19928;-31
2022/09/21 01:20:31;;;;;;;;;;;;;;;10.75;100.00;102702.19;5073712;28;20366;-32
2022/09/21 01:23:07;;;;;;;;;;;;;;;10.69;100.00;102710.47;5066482;28;19931;-31
2022/09/21 01:25:40;;;;;;;;;;;;;;;10.65;100.00;102702.84;5058664;28;20031;-32
2022/09/21 01:28:15;;;;;;;;;;;;;;;10.60;100.00;102709.19;5060594;28;20250;-32
2022/09/21 01:30:45;;;;;;;;;;;;;;;10.55;100.00;102709.13;5058765;28;20015;-33
2022/09/21 01:33:18;;;;;;;;;;;;;;;10.52;100.00;102703.19;5059208;28;19924;-31
2022/09/21 01:35:48;;;;;;;;;;;;;;;10.48;100.00;102714.03;5059829;28;19929;-32
2022/09/21 01:38:21;;;;;;;;;;;;;;;10.44;100.00;102707.25;5058604;28;19935;-31
2022/09/21 01:40:51;;;;;;;;;;;;;;;10.39;100.00;102717.50;5059558;28;20313;-33
2022/09/21 01:43:22;;;;;;;;;;;;;;;10.35;100.00;102711.56;5057498;28;20027;-32
2022/09/21 01:45:53;;;;;;;;;;;;;;;10.30;100.00;102711.47;5061727;28;19925;-33
2022/09/21 01:48:23;;;;;;;;;;;;;;;10.28;100.00;102716.47;5054853;28;19932;-33
2022/09/21 01:50:53;;;;;;;;;;;;;;;10.26;100.00;102704.69;5064561;28;20007;-33
2022/09/21 01:53:23;;;;;;;;;;;;;;;10.22;100.00;102704.34;5072043;28;19946;-32
2022/09/21 01:55:53;;;;;;;;;;;;;;;10.20;100.00;102705.69;5073260;28;20007;-33
2022/09/21 01:58:24;;;;;;;;;;;;;;;10.20;100.00;102709.34;5071698;28;19929;-32
2022/09/21 02:00:55;;;;;;;;;;;;;;;10.19;100.00;102709.63;5061435;28;20003;-32
2022/09/21 02:03:27;;;;;;;;;;;;;;;10.21;100.00;102707.38;5072017;28;20070;-32
2022/09/21 02:05:56;;;;;;;;;;;;;;;10.23;100.00;102711.63;5061913;28;19925;-32
2022/09/21 02:08:25;;;;;;;;;;;;;;;10.24;100.00;102709.69;5071227;28;19978;-32
2022/09/21 02:10:53;;;;;;;;;;;;;;;10.26;100.00;102707.50;5067844;28;19936;-31
2022/09/21 02:13:24;;;;;;;;;;;;;;;10.27;100.00;102707.25;5053484;28;19931;-31
2022/09/21 02:16:01;;;;;;;;;;;;;;;10.26;100.00;102702.75;5061112;28;19925;-31
2022/09/21 02:18:34;;;;;;;;;;;;;;;10.26;100.00;102702.75;5073250;28;19947;-32
2022/09/21 02:21:03;;;;;;;;;;;;;;;10.26;100.00;102699.13;5059968;28;20381;-31
2022/09/21 02:23:36;;;;;;;;;;;;;;;10.25;100.00;102711.38;5052541;28;19928;-31
2022/09/21 02:26:06;;;;;;;;;;;;;;;10.25;100.00;102711.38;5065418;28;20347;-31
2022/09/21 02:28:38;;;;;;;;;;;;;;;10.24;100.00;102702.16;5053024;28;20394;-31
2022/09/21 02:31:12;;;;;;;;;;;;;;;10.26;100.00;102716.72;5064429;28;19965;-32
2022/09/21 02:33:46;;;;;;;;;;;;;;;10.29;100.00;102709.78;5053256;28;19928;-32
2022/09/21 02:36:19;;;;;;;;;;;;;;;10.32;100.00;102704.56;5064373;28;20455;-33
2022/09/21 02:38:49;;;;;;;;;;;;;;;10.35;100.00;102704.06;5052845;28;20390;-32
2022/09/21 02:41:19;;;;;;;;;;;;;;;10.38;100.00;102708.28;5065247;28;19928;-38
2022/09/21 02:43:50;;;;;;;;;;;;;;;10.40;100.00;102694.03;5052040;28;19925;-32
2022/09/21 02:46:25;;;;;;;;;;;;;;;10.42;100.00;102697.44;5063894;28;19924;-32
2022/09/21 02:48:54;;;;;;;;;;;;;;;10.43;100.00;102697.19;5067547;28;20461;-32
2022/09/21 02:51:26;;;;;;;;;;;;;;;10.43;100.00;102694.38;5062303;28;19932;-32
2022/09/21 02:53:54;;;;;;;;;;;;;;;10.44;100.00;102695.25;5053555;28;19975;-34
2022/09/21 02:56:22;;;;;;;;;;;;;;;10.45;100.00;102696.94;5061159;28;19968;-32
2022/09/21 02:58:53;;;;;;;;;;;;;;;10.44;100.00;102695.25;5054224;28;19929;-32
2022/09/21 03:01:22;;;;;;;;;;;;;;;10.42;100.00;102695.50;5059845;28;19989;-31
2022/09/21 03:03:50;;;;;;;;;;;;;;;10.41;100.00;102696.59;5056639;28;19964;-31
2022/09/21 03:06:17;;;;;;;;;;;;;;;10.40;100.00;102694.88;5056928;28;19928;-33
2022/09/21 03:08:46;;;;;;;;;;;;;;;10.39;100.00;102697.97;5058606;28;19925;-31
2022/09/21 03:11:17;;;;;;;;;;;;;;;10.40;100.00;102703.25;5055089;28;20024;-34
2022/09/21 03:13:44;;;;;;;;;;;;;;;10.41;100.00;102707.75;5059160;28;19939;-31
2022/09/21 03:16:12;;;;;;;;;;;;;;;10.40;100.00;102700.47;5051372;28;19924;-32
2022/09/21 03:18:43;;;;;;;;;;;;;;;10.41;100.00;102702.16;5059202;28;19970;-32
2022/09/21 03:21:11;;;;;;;;;;;;;;;10.42;100.00;102705.81;5054569;28;19932;-33
2022/09/21 03:23:38;;;;;;;;;;;;;;;10.43;100.00;102704.72;5063332;28;19978;-32
2022/09/21 03:26:07;;;;;;;;;;;;;;;10.45;100.00;102708.94;5051868;28;19981;-31
2022/09/21 03:28:34;;;;;;;;;;;;;;;10.46;100.00;102707.84;5061247;28;19932;-31
2022/09/21 03:31:02;;;;;;;;;;;;;;;10.48;100.00;102711.22;5049405;28;20349;-32
2022/09/21 03:33:30;;;;;;;;;;;;;;;10.48;100.00;102713.16;5062391;28;19925;-31
2022/09/21 03:35:59;;;;;;;;;;;;;;;10.48;100.00;102714.03;5051360;28;19951;-31
2022/09/21 03:38:26;;;;;;;;;;;;;;;10.48;100.00;102716.81;5064134;28;19924;-32
2022/09/21 03:40:57;;;;;;;;;;;;;;;10.48;100.00;102716.81;5051262;28;19971;-32
2022/09/21 03:43:24;;;;;;;;;;;;;;;10.47;100.00;102717.91;5064034;28;19935;-32
2022/09/21 03:45:53;;;;;;;;;;;;;;;10.45;100.00;102714.53;5051607;28;19974;-34
2022/09/21 03:48:21;;;;;;;;;;;;;;;10.45;100.00;102719.25;5061429;28;19986;-31
2022/09/21 03:50:48;;;;;;;;;;;;;;;10.43;100.00;102719.50;5067042;28;20349;-32
2022/09/21 03:53:17;;;;;;;;;;;;;;;10.41;100.00;102712.47;5060609;28;19951;-31
2022/09/21 03:55:45;;;;;;;;;;;;;;;10.38;100.00;102713.88;5053733;28;20365;-32
2022/09/21 03:58:12;;;;;;;;;;;;;;;10.35;100.00;102706.84;5058771;28;19960;-31
2022/09/21 04:00:40;;;;;;;;;;;;;;;10.33;100.00;102710.97;5055271;28;19932;-34
2022/09/21 04:03:07;;;;;;;;;;;;;;;10.28;100.00;102706.16;5056271;28;19954;-31
2022/09/21 04:05:35;;;;;;;;;;;;;;;10.27;100.00;102715.63;5058611;28;19924;-31
2022/09/21 04:08:03;;;;;;;;;;;;;;;10.25;100.00;102708.59;5053329;28;19955;-31
2022/09/21 04:10:32;;;;;;;;;;;;;;;10.22;100.00;102709.09;5060500;28;19948;-31
2022/09/21 04:13:01;;;;;;;;;;;;;;;10.19;100.00;102709.63;5052972;28;19998;-32
2022/09/21 04:15:29;;;;;;;;;;;;;;;10.16;100.00;102710.09;5059749;28;19925;-37
2022/09/21 04:17:57;;;;;;;;;;;;;;;10.13;100.00;102705.00;5069365;28;19931;-32
2022/09/21 04:20:25;;;;;;;;;;;;;;;10.11;100.00;102704.41;5062446;28;20440;-31
2022/09/21 04:22:52;;;;;;;;;;;;;;;10.09;100.00;102706.59;5065512;28;20421;-32
2022/09/21 04:25:20;;;;;;;;;;;;;;;10.07;100.00;102711.56;5067381;28;20381;-32
2022/09/21 04:27:49;;;;;;;;;;;;;;;10.05;100.00;102702.59;5072652;28;19946;-35
2022/09/21 04:30:17;;;;;;;;;;;;;;;10.02;100.00;102704.78;5066892;28;19929;-31
2022/09/21 04:32:45;;;;;;;;;;;;;;;10.01;100.00;102703.09;5055282;28;19947;-31
2022/09/21 04:35:12;;;;;;;;;;;;;;;10.02;100.00;102707.59;5067362;28;19924;-32
2022/09/21 04:37:40;;;;;;;;;;;;;;;10.02;100.00;102703.94;5054393;28;19933;-33
2022/09/21 04:40:08;;;;;;;;;;;;;;;9.98;100.00;102703.63;5066525;28;19932;-31
2022/09/21 04:42:36;;;;;;;;;;;;;;;9.97;100.00;102707.50;5054351;28;19929;-31
2022/09/21 04:45:06;;;;;;;;;;;;;;;9.95;100.00;102708.84;5064465;28;20435;-32
2022/09/21 04:47:34;;;;;;;;;;;;;;;9.93;100.00;102700.75;5057180;28;20349;-34
2022/09/21 04:50:01;;;;;;;;;;;;;;;9.89;100.00;102707.91;5064216;28;19924;-32
2022/09/21 04:52:29;;;;;;;;;;;;;;;9.87;100.00;102709.25;5059077;28;20332;-33
2022/09/21 04:54:56;;;;;;;;;;;;;;;9.85;100.00;102705.84;5060200;28;19924;-34
2022/09/21 04:57:24;;;;;;;;;;;;;;;9.82;100.00;102712.78;5060223;28;19929;-34
2022/09/21 04:59:51;;;;;;;;;;;;;;;9.80;100.00;102703.81;5055710;28;20451;-31
2022/09/21 05:02:20;;;;;;;;;;;;;;;9.78;100.00;102711.59;5061304;28;19978;-32
2022/09/21 05:04:48;;;;;;;;;;;;;;;9.76;100.00;102711.00;5054121;28;19971;-32
2022/09/21 05:07:17;;;;;;;;;;;;;;;9.74;100.00;102710.41;5063674;28;19936;-32
2022/09/21 05:10:03;;;;;;;;;;;;;;;9.71;100.00;102712.84;5054750;28;19929;-33
2022/09/21 05:12:31;;;;;;;;;;;;;;;9.70;100.00;102713.94;5063225;28;20385;-33
2022/09/21 05:14:59;;;;;;;;;;;;;;;9.67;100.00;102718.91;5070215;28;19937;-31
2022/09/21 05:17:28;;;;;;;;;;;;;;;9.67;100.00;102713.31;5064813;28;19929;-32
2022/09/21 05:19:55;;;;;;;;;;;;;;;9.65;100.00;102709.09;5054282;28;19940;-31
2022/09/21 05:22:23;;;;;;;;;;;;;;;9.63;100.00;102711.28;5070111;28;19929;-32
2022/09/21 05:24:50;;;;;;;;;;;;;;;9.61;100.00;102713.47;5072520;28;19971;-31
2022/09/21 05:27:18;;;;;;;;;;;;;;;9.61;100.00;102716.25;5061299;28;19936;-32
2022/09/21 05:29:46;;;;;;;;;;;;;;;9.59;100.00;102715.69;5074115;28;19924;-34
2022/09/21 05:32:18;;;;;;;;;;;;;;;9.56;100.00;102719.81;5060483;28;19929;-33
2022/09/21 05:34:53;;;;;;;;;;;;;;;9.54;100.00;102713.63;5074089;28;19931;-32
2022/09/21 05:37:36;;;;;;;;;;;;;;;9.53;100.00;102719.44;5060641;28;20467;-31
2022/09/21 05:40:05;;;;;;;;;;;;;;;9.52;100.00;102712.16;5071064;28;19932;-31
2022/09/21 05:42:33;;;;;;;;;;;;;;;9.52;100.00;102710.22;5060004;28;19928;-34
2022/09/21 05:45:01;;;;;;;;;;;;;;;9.53;100.00;102714.72;5071517;28;19951;-32
2022/09/21 05:47:36;;;;;;;;;;;;;;;9.55;100.00;102720.03;5059035;28;20433;-32
2022/09/21 05:50:15;;;;;;;;;;;;;;;9.56;100.00;102724.53;5057763;28;19985;-32
2022/09/21 05:52:46;;;;;;;;;;;;;;;9.56;100.00;102725.38;5065428;28;19929;-35
2022/09/21 05:55:21;;;;;;;;;;;;;;;9.58;100.00;102727.91;5052010;28;19932;-32
2022/09/21 05:57:53;;;;;;;;;;;;;;;9.58;100.00;102725.13;5062594;28;19932;-34
2022/09/21 06:00:22;;;;;;;;;;;;;;;9.60;100.00;102722.91;5052039;28;19974;-34
2022/09/21 06:02:56;;;;;;;;;;;;;;;9.61;100.00;102721.81;5063721;28;19929;-32
2022/09/21 06:05:26;;;;;;;;;;;;;;;9.62;100.00;102729.94;5052595;28;19932;-32
2022/09/21 06:07:53;;;;;;;;;;;;;;;9.64;100.00;102729.69;5055532;28;19982;-33
2022/09/21 06:10:23;;;;;;;;;;;;;;;9.65;100.00;102731.38;5070401;28;19933;-34
2022/09/21 06:12:50;;;;;;;;;;;;;;;9.66;100.00;102733.94;5063734;28;19929;-32
2022/09/21 06:15:18;;;;;;;;;;;;;;;9.69;100.00;102729.81;5067618;28;19935;-32
2022/09/21 06:17:45;;;;;;;;;;;;;;;9.70;100.00;102734.28;5065480;28;19936;-32
2022/09/21 06:20:13;;;;;;;;;;;;;;;9.73;100.00;102736.59;5066403;28;19932;-34
2022/09/21 06:22:42;;;;;;;;;;;;;;;9.78;100.00;102735.84;5061491;28;19924;-32
2022/09/21 06:25:10;;;;;;;;;;;;;;;9.81;100.00;102735.31;5059579;28;19956;-34
2022/09/21 06:27:37;;;;;;;;;;;;;;;9.83;100.00;102739.56;5054223;28;19979;-33
2022/09/21 06:30:05;;;;;;;;;;;;;;;9.88;100.00;102730.47;5061950;28;19935;-32
2022/09/21 06:32:33;;;;;;;;;;;;;;;9.93;100.00;102730.56;5069297;28;19940;-32
2022/09/21 06:35:01;;;;;;;;;;;;;;;9.98;100.00;102731.53;5063854;28;19998;-33
2022/09/21 06:37:28;;;;;;;;;;;;;;;10.07;100.00;102740.31;5051863;28;19929;-34
2022/09/21 06:39:57;;;;;;;;;;;;;;;10.17;100.00;102734.09;5062096;28;19994;-33
2022/09/21 06:42:25;;;;;;;;;;;;;;;10.37;100.00;102733.66;5050372;28;19936;-33
2022/09/21 06:44:52;;;;;;;;;;;;;;;10.76;100.00;102737.38;5064179;28;19963;-33
2022/09/21 06:47:20;;;;;;;;;;;;;;;11.30;100.00;102735.66;5053184;28;19933;-33
2022/09/21 06:49:47;;;;;;;;;;;;;;;11.96;100.00;102739.34;5055733;28;20378;-34
2022/09/21 06:52:15;;;;;;;;;;;;;;;12.65;100.00;102739.44;5071917;28;19925;-34
2022/09/21 06:54:42;;;;;;;;;;;;;;;13.35;100.00;102732.69;5059625;28;19929;-33
2022/09/21 06:57:11;;;;;;;;;;;;;;;13.98;100.00;102731.53;5071836;28;19928;-36
2022/09/21 06:59:39;;;;;;;;;;;;;;;14.57;100.00;102731.09;5061615;28;19986;-34
2022/09/21 07:02:08;;;;;;;;;;;;;;;15.10;100.00;102737.22;5070782;28;20404;-33
2022/09/21 07:04:36;;;;;;;;;;;;;;;15.55;100.00;102741.06;5062284;28;19929;-33
2022/09/21 07:07:04;;;;;;;;;;;;;;;15.85;95.48;102741.78;5069289;28;19928;-35
2022/09/21 07:09:31;;;;;;;;;;;;;;;16.07;92.07;102738.56;5065183;28;20401;-35
2022/09/21 07:12:20;;;;;;;;;;;;;;;16.43;88.22;102746.78;5068861;28;20023;-34
2022/09/21 07:14:48;;;;;;;;;;;;;;;16.61;85.43;102745.22;5064154;28;19974;-34
2022/09/21 07:17:15;;;;;;;;;;;;;;;16.85;84.53;102751.81;5067701;28;20423;-35
2022/09/21 07:19:43;;;;;;;;;;;;;;;17.12;81.38;102746.50;5066231;28;19960;-34
2022/09/21 07:22:11;;;;;;;;;;;;;;;17.52;79.95;102747.19;5055655;28;20298;-33
2022/09/21 07:24:39;;;;;;;;;;;;;;;17.78;77.21;102740.13;5054665;28;20022;-33
2022/09/21 07:27:06;;;;;;;;;;;;;;;18.00;76.81;102750.81;5060678;28;19925;-34
2022/09/21 07:29:35;;;;;;;;;;;;;;;18.29;75.42;102744.22;5053281;28;19937;-33
2022/09/21 07:32:04;;;;;;;;;;;;;;;18.68;75.38;102744.72;5061888;28;19936;-36
2022/09/21 07:34:34;;;;;;;;;;;;;;;19.05;70.67;102748.63;5053309;28;19936;-33
2022/09/21 07:37:02;;;;;;;;;;;;;;;19.28;69.45;102736.28;5063062;28;19924;-33
2022/09/21 07:39:29;;;;;;;;;;;;;;;19.53;67.67;102747.16;5052680;28;20437;-34
2022/09/21 07:41:57;;;;;;;;;;;;;;;19.87;65.11;102745.88;5062754;28;19925;-34
2022/09/21 07:44:25;;;;;;;;;;;;;;;20.13;65.18;102749.81;5052054;28;20320;-33
2022/09/21 07:46:54;;;;;;;;;;;;;;;20.29;63.85;102751.13;5063383;28;19937;-33
2022/09/21 07:49:21;;;;;;;;;;;;;;;20.58;63.39;102758.44;5060852;28;19995;-34
2022/09/21 07:51:49;;;;;;;;;;;;;;;20.89;61.54;102752.81;5058701;28;20373;-34
2022/09/21 07:54:17;;;;;;;;;;;;;;;21.15;60.15;102751.00;5070713;28;19929;-33
2022/09/21 07:59:04;;;;;;;;;;;;;;;21.40;60.11;102748.63;5059269;28;20343;-33
2022/09/21 07:59:31;;;;;;;;;;;;;;;21.81;59.66;102757.66;5051110;28;19924;-34
2022/09/21 08:02:00;;;;;;;;;;;;;;;22.19;57.41;102749.38;5064040;28;19932;-36
2022/09/21 08:04:28;;;;;;;;;;;;;;;22.63;56.43;102750.25;5051556;28;19982;-44
2022/09/21 08:06:55;;;;;;;;;;;;;;;23.08;53.55;102749.88;5061385;28;19932;-40
2022/09/21 08:09:23;;;;;;;;;;;;;;;23.35;51.97;102749.47;5052590;28;20313;-34
2022/09/21 08:11:51;;;;;;;;;;;;;;;23.68;52.20;102744.84;5060382;28;19932;-38
2022/09/21 08:14:19;;;;;;;;;;;;;;;23.94;48.15;102743.84;5053862;28;19925;-41
2022/09/21 08:16:53;;;;;;;;;;;;;;;24.10;48.01;102744.91;5058842;28;19982;-36
2022/09/21 08:19:24;;;;;;;;;;;;;;;24.28;45.31;102745.66;5055464;28;19933;-35
2022/09/21 08:21:52;;;;;;;;;;;;;;;24.46;45.81;102752.91;5059033;28;20399;-33
2022/09/21 08:24:25;;;;;;;;;;;;;;;24.65;44.81;102752.41;5056794;28;19928;-37
2022/09/21 08:26:54;;;;;;;;;;;;;;;24.82;43.48;102757.09;5056249;28;20023;-35
2022/09/21 08:29:23;;;;;;;;;;;;;;;24.84;43.88;102747.00;5057694;28;20362;-36
2022/09/21 08:31:51;;;;;;;;;;;;;;;24.94;42.54;102748.59;5054129;28;19943;-41
2022/09/21 08:34:18;;;;;;;;;;;;;;;24.90;42.61;102756.19;5060330;28;19932;-35
2022/09/21 08:36:47;;;;;;;;;;;;;;;24.95;42.27;102748.28;5051702;28;19936;-38
2022/09/21 08:39:21;;;;;;;;;;;;;;;25.06;42.60;102751.53;5061396;28;20362;-34
2022/09/21 08:41:55;;;;;;;;;;;;;;;25.05;41.04;102750.69;5067419;28;19924;-35
2022/09/21 08:44:24;;;;;;;;;;;;;;;24.98;40.94;102753.28;5062090;28;19928;-39
2022/09/21 08:46:56;;;;;;;;;;;;;;;25.16;42.20;102753.09;5052401;28;19924;-39
2022/09/21 08:49:27;;;;;;;;;;;;;;;25.58;43.28;102750.91;5059595;28;19982;-38
2022/09/21 08:51:59;;;;;;;;;;;;;;;26.02;43.07;102757.72;5052279;28;20374;-39
2022/09/21 08:54:29;;;;;;;;;;;;;;;26.40;39.53;102758.16;5062220;28;19951;-40
2022/09/21 08:56:56;;;;;;;;;;;;;;;26.67;41.93;102753.66;5050702;28;19974;-36
2022/09/21 08:59:33;;;;;;;;;;;;;;;26.90;39.35;102751.06;5068077;28;20388;-38
2022/09/21 09:02:08;;;;;;;;;;;;;;;26.96;37.88;102754.53;5070761;28;19976;-34
2022/09/21 09:04:43;;;;;;;;;;;;;;;26.88;39.50;102759.19;5059045;28;19925;-40
2022/09/21 09:07:21;;;;;;;;;;;;;;;27.08;39.69;102760.19;5070669;28;20001;-38
2022/09/21 09:09:55;;;;;;;;;;;;;;;27.40;38.78;102764.75;5067159;28;19924;-41
2022/09/21 09:12:34;;;;;;;;;;;;;;;27.60;39.86;102768.59;5070776;28;19955;-42
2022/09/21 09:15:14;;;;;;;;;;;;;;;27.63;37.11;102767.00;5069286;28;19970;-35
2022/09/21 09:17:48;;;;;;;;;;;;;;;27.65;38.33;102773.22;5072354;28;20386;-34
2022/09/21 09:20:18;;;;;;;;;;;;;;;27.62;36.18;102766.19;5071701;28;19928;-37
2022/09/21 09:22:49;;;;;;;;;;;;;;;27.69;38.07;102759.81;5059955;28;19929;-40
2022/09/21 09:25:20;;;;;;;;;;;;;;;28.00;37.47;102764.66;5064911;28;20035;-33
2022/09/21 09:27:50;;;;;;;;;;;;;;;28.05;36.73;102762.34;5054453;28;19932;-31
2022/09/21 09:30:19;;;;;;;;;;;;;;;28.28;37.90;102753.91;5066370;28;19924;-41
2022/09/21 09:32:51;;;;;;;;;;;;;;;28.49;35.11;102750.69;5052319;28;19924;-37
2022/09/21 09:35:22;;;;;;;;;;;;;;;28.37;35.35;102766.03;5066597;28;19931;-35
2022/09/21 09:37:53;;;;;;;;;;;;;;;28.20;34.83;102763.53;5054282;28;19933;-37
2022/09/21 09:40:27;;;;;;;;;;;;;;;28.20;35.87;102752.06;5065738;28;20292;-34
2022/09/21 09:42:58;;;;;;;;;;;;;;;28.52;36.30;102763.44;5054208;28;19928;-34
2022/09/21 09:45:38;;;;;;;;;;;;;;;28.96;36.76;102759.09;5066664;28;19931;-34
2022/09/21 09:48:15;;;;;;;;;;;;;;;29.39;35.63;102760.75;5074070;28;19928;-38
2022/09/21 09:50:43;;;;;;;;;;;;;;;29.68;33.84;102759.22;5061161;28;19929;-34
2022/09/21 09:53:14;;;;;;;;;;;;;;;29.93;35.10;102764.56;5073059;28;19928;-33
2022/09/21 09:55:43;;;;;;;;;;;;;;;30.21;34.90;102762.16;5061471;28;19983;-33
2022/09/21 09:58:16;;;;;;;;;;;;;;;30.54;33.77;102755.63;5074063;28;19928;-38
2022/09/21 10:00:44;;;;;;;;;;;;;;;30.86;33.39;102752.34;5068633;28;19939;-36
2022/09/21 10:03:16;;;;;;;;;;;;;;;31.08;33.54;102752.22;5054593;28;20333;-41
2022/09/21 10:05:43;;;;;;;;;;;;;;;31.29;33.39;102750.81;5062833;28;19928;-34
2022/09/21 10:11:06;;;;;;;;;;;;;;;30.54;32.77;102764.28;5150482;27;19920;-35
2022/09/21 10:13:34;;;;;;;;;;;;;;;29.91;33.65;102767.00;5149939;27;20287;-35
2022/09/21 10:16:04;;;;;;;;;;;;;;;29.29;34.46;102763.41;5150232;27;19923;-35
2022/09/21 10:18:36;;;;;;;;;;;;;;;28.70;35.59;102756.03;5150384;27;19924;-39
2022/09/21 10:21:06;;;;;;;;;;;;;;;28.11;35.09;102762.91;5149574;27;19924;-34
2022/09/21 10:23:35;;;;;;;;;;;;;;;27.54;36.37;102760.63;5150495;27;19927;-35
2022/09/21 10:26:05;;;;;;;;;;;;;;;27.04;37.32;102762.94;5150158;27;19931;-35
2022/09/21 10:28:34;;;;;;;;;;;;;;;26.57;38.11;102753.34;5149470;27;19923;-36
2022/09/21 10:31:08;;;;;;;;;;;;;;;26.08;38.24;102753.44;5150166;27;19927;-35
2022/09/21 10:33:43;;;;;;;;;;;;;;;25.64;39.67;102758.91;5150299;27;19927;-34
2022/09/21 10:36:24;;;;;;;;;;;;;;;25.22;39.88;102763.09;5149422;27;19927;-36
2022/09/21 10:38:52;;;;;;;;;;;;;;;24.85;40.80;102757.25;5150534;27;19976;-34
2022/09/21 10:41:19;;;;;;;;;;;;;;;24.59;42.02;102757.47;5149343;27;19984;-40
2022/09/21 10:43:50;;;;;;;;;;;;;;;24.61;43.11;102751.41;5150194;27;20063;-34
2022/09/21 10:46:32;;;;;;;;;;;;;;;24.86;43.86;102753.22;5149898;27;20419;-39
2022/09/21 10:49:00;;;;;;;;;;;;;;;24.89;41.52;102752.50;5149118;27;19984;-37
2022/09/21 10:51:29;;;;;;;;;;;;;;;24.72;41.84;102749.81;5149938;27;20019;-40
2022/09/21 10:53:57;;;;;;;;;;;;;;;24.49;42.53;102745.66;5148608;27;19928;-34
2022/09/21 10:56:25;;;;;;;;;;;;;;;24.29;42.15;102747.34;5148922;27;19976;-34
2022/09/21 10:59:20;;;;;;;;;;;;;;;24.09;43.83;102750.97;5138303;27;19931;-39
2022/09/21 11:01:48;;;;;;;;;;;;;;;23.82;43.19;102749.44;5149467;27;20301;-33
2022/09/21 11:04:19;;;;;;;;;;;;;;;23.48;43.84;102745.56;5148806;27;19928;-33
2022/09/21 11:06:49;;;;;;;;;;;;;;;23.23;44.05;102746.50;5149529;27;19935;-36
2022/09/21 11:09:19;;;;;;;;;;;;;;;23.18;45.77;102749.53;5138172;27;19927;-38
2022/09/21 11:11:51;;;;;;;;;;;;;;;23.34;47.22;102748.66;5148747;27;20376;-33
2022/09/21 11:14:26;;;;;;;;;;;;;;;23.59;45.76;102738.31;5149174;27;20436;-43
2022/09/21 11:16:55;;;;;;;;;;;;;;;23.67;43.63;102734.59;5148651;27;20377;-32
2022/09/21 11:19:28;;;;;;;;;;;;;;;23.56;44.03;102739.03;5149377;27;19923;-40
2022/09/21 11:22:01;;;;;;;;;;;;;;;23.43;44.23;102739.22;5138374;27;19927;-35
2022/09/21 11:24:32;;;;;;;;;;;;;;;23.41;45.40;102738.72;5134595;27;19924;-38
2022/09/21 11:27:03;;;;;;;;;;;;;;;23.48;45.11;102742.72;5135882;27;19923;-42
2022/09/21 11:29:35;;;;;;;;;;;;;;;23.47;43.57;102732.50;5132086;27;19949;-38
2022/09/21 11:32:19;;;;;;;;;;;;;;;23.50;44.72;102734.66;5134606;27;19934;-39
2022/09/21 11:34:54;;;;;;;;;;;;;;;23.77;44.65;102732.56;5132852;27;19923;-34
2022/09/21 11:37:28;;;;;;;;;;;;;;;24.00;44.75;102731.06;5135157;27;19927;-42
2022/09/21 11:40:04;;;;;;;;;;;;;;;24.16;43.04;102725.59;5132483;27;19991;-38
2022/09/21 11:42:41;;;;;;;;;;;;;;;24.32;43.37;102730.34;5135230;27;19976;-41
2022/09/21 11:45:21;;;;;;;;;;;;;;;24.36;42.79;102727.66;5131806;27;20376;-42
2022/09/21 11:47:59;;;;;;;;;;;;;;;24.53;42.55;102732.38;5134901;27;19938;-38
2022/09/21 11:50:40;;;;;;;;;;;;;;;24.57;41.30;102728.47;5135080;27;20009;-37
2022/09/21 11:53:24;;;;;;;;;;;;;;;24.56;42.41;102732.50;5134087;27;19934;-34
2022/09/21 11:56:12;;;;;;;;;;;;;;;24.47;41.49;102722.34;5123959;27;19923;-34
2022/09/21 11:58:45;;;;;;;;;;;;;;;24.44;41.67;102728.75;5124432;27;19927;-38
2022/09/21 12:01:21;;;;;;;;;;;;;;;24.51;43.11;102723.31;5134889;27;19923;-33
2022/09/21 12:03:58;;;;;;;;;;;;;;;24.58;41.40;102715.84;5134724;27;19930;-35
2022/09/21 12:06:32;;;;;;;;;;;;;;;24.73;41.73;102732.34;5133899;27;19923;-33
2022/09/21 12:09:14;;;;;;;;;;;;;;;24.80;40.69;102720.34;5134431;27;19933;-32
2022/09/21 12:11:44;;;;;;;;;;;;;;;24.69;41.16;102725.66;5134665;27;19924;-36
2022/09/21 12:14:21;;;;;;;;;;;;;;;24.76;40.85;102725.09;5133684;27;19955;-35
2022/09/21 12:16:55;;;;;;;;;;;;;;;24.71;40.19;102722.47;5134976;27;19976;-33
2022/09/21 12:19:27;;;;;;;;;;;;;;;24.64;41.62;102716.47;5134118;27;20376;-38
2022/09/21 12:21:59;;;;;;;;;;;;;;;24.49;38.86;102714.25;5133842;27;19943;-34
2022/09/21 12:24:30;;;;;;;;;;;;;;;24.26;39.87;102716.63;5134412;27;19935;-37
2022/09/21 12:27:01;;;;;;;;;;;;;;;24.09;41.07;102709.03;5133605;27;19923;-37
2022/09/21 12:29:33;;;;;;;;;;;;;;;23.88;42.02;102716.72;5133956;27;19927;-36
2022/09/21 12:32:05;;;;;;;;;;;;;;;23.74;42.65;102711.28;5122825;27;19972;-35
2022/09/21 12:34:38;;;;;;;;;;;;;;;23.71;43.03;102706.25;5132841;27;19935;-33
2022/09/21 12:37:08;;;;;;;;;;;;;;;23.80;43.52;102706.19;5134141;27;19931;-34
2022/09/21 12:39:39;;;;;;;;;;;;;;;23.93;41.73;102707.97;5133744;27;19969;-34
2022/09/21 12:42:18;;;;;;;;;;;;;;;23.93;42.42;102702.25;5133475;27;20017;-35
2022/09/21 12:44:52;;;;;;;;;;;;;;;23.72;41.63;102702.22;5133955;27;19931;-38
2022/09/21 12:47:24;;;;;;;;;;;;;;;23.55;42.67;102702.31;5134043;27;19980;-42
2022/09/21 12:49:56;;;;;;;;;;;;;;;23.55;43.37;102708.03;5133063;27;19923;-34
2022/09/21 12:52:25;;;;;;;;;;;;;;;23.62;42.09;102705.44;5133531;27;20365;-40